Time;durP1;ratioP1;P1;durP2;ratioP2;P2;SDS_P1;SDS_P2;PMS_P1;PMS_P2;Temp;Humidity;BMP_temperature;BMP_pressure;BME280_temperature;BME280_humidity;BME280_pressure;Samples;Min_cycle;Max_cycle;Signal;HPM_P1;HPM_P2
2021/07/30 00:00:39;;;;;;;1.13;1.13;;;26.90;50.10;;;;;;5027220;28;20607;-63
2021/07/30 00:03:07;;;;;;;0.82;0.82;;;27.00;50.20;;;;;;5025546;28;20041;-62
2021/07/30 00:05:35;;;;;;;1.27;1.17;;;26.90;50.10;;;;;;5027711;28;20445;-63
2021/07/30 00:08:02;;;;;;;0.80;0.80;;;26.90;50.10;;;;;;5031184;28;20403;-63
2021/07/30 00:10:29;;;;;;;1.30;1.08;;;26.90;50.10;;;;;;5031180;28;20085;-63
2021/07/30 00:12:56;;;;;;;1.20;0.93;;;26.90;50.10;;;;;;5031003;28;20081;-63
2021/07/30 00:15:24;;;;;;;0.90;0.90;;;26.90;50.10;;;;;;5030968;28;20585;-62
2021/07/30 00:17:51;;;;;;;1.35;1.17;;;26.90;50.10;;;;;;5031311;28;20103;-63
2021/07/30 00:20:18;;;;;;;1.02;1.02;;;26.90;50.20;;;;;;5031134;28;20050;-63
2021/07/30 00:22:45;;;;;;;0.98;0.95;;;26.90;50.20;;;;;;5031213;28;20474;-63
2021/07/30 00:25:13;;;;;;;1.05;0.93;;;26.90;50.20;;;;;;5030147;28;20124;-63
2021/07/30 00:27:42;;;;;;;0.93;0.93;;;26.90;50.20;;;;;;5031063;28;20478;-63
2021/07/30 00:30:10;;;;;;;1.20;1.10;;;26.90;50.20;;;;;;5031921;28;20492;-63
2021/07/30 00:32:37;;;;;;;1.08;1.08;;;26.90;50.20;;;;;;5032481;28;20054;-63
2021/07/30 00:35:05;;;;;;;2.25;1.52;;;26.90;50.20;;;;;;5032043;28;20072;-63
2021/07/30 00:37:35;;;;;;;1.17;0.93;;;26.90;50.20;;;;;;5032020;28;20050;-62
2021/07/30 00:40:02;;;;;;;;;;;26.90;50.30;;;;;;5031984;28;20041;-63
2021/07/30 00:42:31;;;;;;;1.60;1.50;;;26.90;50.20;;;;;;5031998;28;20355;-63
2021/07/30 00:45:00;;;;;;;0.90;0.90;;;26.90;50.30;;;;;;5031324;28;20410;-63
2021/07/30 00:47:29;;;;;;;1.50;1.40;;;26.90;50.30;;;;;;5031984;28;20132;-63
2021/07/30 00:49:59;;;;;;;1.20;1.10;;;26.90;50.30;;;;;;5031768;28;20136;-63
2021/07/30 00:52:26;;;;;;;1.02;1.02;;;26.90;50.30;;;;;;5031873;28;20128;-63
2021/07/30 00:54:55;;;;;;;0.70;0.70;;;26.90;50.30;;;;;;5031423;28;20053;-63
2021/07/30 00:57:23;;;;;;;1.23;1.23;;;26.90;50.30;;;;;;5031667;28;20141;-63
2021/07/30 00:59:51;;;;;;;1.05;1.02;;;26.80;50.30;;;;;;5030504;28;20171;-63
2021/07/30 01:02:18;;;;;;;1.30;1.20;;;26.80;50.30;;;;;;5030102;28;20556;-63
2021/07/30 01:04:46;;;;;;;1.02;0.90;;;26.80;50.30;;;;;;5029960;28;20557;-62
2021/07/30 01:07:13;;;;;;;1.27;1.17;;;26.80;50.30;;;;;;5030103;28;20085;-63
2021/07/30 01:09:41;;;;;;;1.20;0.80;;;26.80;50.40;;;;;;5029731;28;20092;-63
2021/07/30 01:12:10;;;;;;;0.80;0.80;;;26.80;50.30;;;;;;5030069;28;20689;-63
2021/07/30 01:14:37;;;;;;;1.13;1.10;;;26.80;50.30;;;;;;5029935;28;20148;-63
2021/07/30 01:17:05;;;;;;;1.30;1.13;;;26.90;50.40;;;;;;5029658;28;20353;-63
2021/07/30 01:19:32;;;;;;;1.10;0.98;;;26.80;50.40;;;;;;5029628;28;20132;-63
2021/07/30 01:22:07;;;;;;;1.20;1.10;;;26.80;50.40;;;;;;5030172;28;20076;-63
2021/07/30 01:24:34;;;;;;;1.20;1.02;;;26.80;50.40;;;;;;5029605;28;20041;-63
2021/07/30 01:27:01;;;;;;;0.73;0.73;;;26.80;50.40;;;;;;5029959;28;20049;-63
2021/07/30 01:29:29;;;;;;;1.40;1.30;;;26.80;50.40;;;;;;5029655;28;20049;-63
2021/07/30 01:31:56;;;;;;;0.90;0.90;;;26.80;50.40;;;;;;5029917;28;20131;-63
2021/07/30 01:34:24;;;;;;;1.13;1.02;;;26.80;50.50;;;;;;5029717;28;20747;-63
2021/07/30 01:36:52;;;;;;;1.35;1.25;;;26.80;50.50;;;;;;5029422;28;20076;-62
2021/07/30 01:39:19;;;;;;;1.00;1.00;;;26.80;50.50;;;;;;5029351;28;20486;-63
2021/07/30 01:41:46;;;;;;;1.73;1.63;;;26.80;50.50;;;;;;5029494;28;20045;-63
2021/07/30 01:44:14;;;;;;;0.70;0.70;;;26.80;50.50;;;;;;5029340;28;20045;-63
2021/07/30 01:46:42;;;;;;;1.00;0.98;;;26.80;50.50;;;;;;5029195;28;20576;-63
2021/07/30 01:49:09;;;;;;;1.00;1.00;;;26.80;50.50;;;;;;5029437;28;20072;-63
2021/07/30 01:51:36;;;;;;;0.90;0.90;;;26.80;50.50;;;;;;5029623;28;20413;-63
2021/07/30 01:54:05;;;;;;;1.08;0.82;;;26.80;50.50;;;;;;5028208;28;20045;-63
2021/07/30 01:56:33;;;;;;;0.90;0.90;;;26.80;50.60;;;;;;5028637;28;20088;-63
2021/07/30 01:59:01;;;;;;;1.30;1.20;;;26.80;50.50;;;;;;5029347;28;20107;-63
2021/07/30 02:01:28;;;;;;;1.02;1.00;;;26.80;50.60;;;;;;5028680;28;20494;-63
2021/07/30 02:03:55;;;;;;;1.13;1.13;;;26.80;50.60;;;;;;5029019;28;20049;-63
2021/07/30 02:06:22;;;;;;;0.95;0.95;;;26.80;50.60;;;;;;5029144;28;20081;-63
2021/07/30 02:08:49;;;;;;;0.80;0.80;;;26.80;50.60;;;;;;5029441;28;20042;-63
2021/07/30 02:11:17;;;;;;;0.90;0.90;;;26.80;50.60;;;;;;5028461;28;20049;-63
2021/07/30 02:16:31;;;;;;;1.20;1.15;;;26.80;50.60;;;;;;5028618;28;20053;-63
2021/07/30 02:18:58;;;;;;;0.90;0.90;;;26.80;50.60;;;;;;5029070;28;20554;-62
2021/07/30 02:21:26;;;;;;;1.30;1.23;;;26.80;50.60;;;;;;5028692;28;20084;-63
2021/07/30 02:23:53;;;;;;;1.00;0.90;;;26.80;50.60;;;;;;5028955;28;20080;-63
2021/07/30 02:26:20;;;;;;;1.23;1.13;;;26.80;50.60;;;;;;5028506;28;20049;-63
2021/07/30 02:28:48;;;;;;;1.00;0.82;;;26.80;50.60;;;;;;5027784;28;20092;-63
2021/07/30 02:31:15;;;;;;;1.00;1.00;;;26.80;50.60;;;;;;5027784;28;20053;-63
2021/07/30 02:33:43;;;;;;;1.35;0.98;;;26.80;50.60;;;;;;5028489;28;20091;-63
2021/07/30 02:36:10;;;;;;;0.90;0.90;;;26.80;50.60;;;;;;5028644;28;20417;-63
2021/07/30 02:38:37;;;;;;;0.77;0.77;;;26.80;50.70;;;;;;5028328;28;20045;-63
2021/07/30 02:41:04;;;;;;;1.20;1.10;;;26.80;50.70;;;;;;5027607;28;20140;-63
2021/07/30 02:43:31;;;;;;;0.88;0.88;;;26.80;50.70;;;;;;5028493;28;20464;-63
2021/07/30 02:45:58;;;;;;;0.98;0.98;;;26.80;50.70;;;;;;5028196;28;20493;-63
2021/07/30 02:48:25;;;;;;;0.95;0.88;;;26.80;50.70;;;;;;5028098;28;20061;-63
2021/07/30 02:50:52;;;;;;;0.98;0.98;;;26.80;50.70;;;;;;5028455;28;20716;-63
2021/07/30 02:53:19;;;;;;;0.73;0.73;;;26.80;50.70;;;;;;5028362;28;20128;-63
2021/07/30 02:55:46;;;;;;;1.05;1.00;;;26.80;50.70;;;;;;5027665;28;20041;-63
2021/07/30 02:58:15;;;;;;;1.02;0.90;;;26.80;50.70;;;;;;5026800;28;20132;-63
2021/07/30 03:00:42;;;;;;;0.93;0.93;;;26.70;50.70;;;;;;5028206;28;20053;-63
2021/07/30 03:03:09;;;;;;;0.98;0.98;;;26.80;50.80;;;;;;5027303;28;20052;-63
2021/07/30 03:05:36;;;;;;;0.95;0.95;;;26.70;50.70;;;;;;5028259;28;20409;-63
2021/07/30 03:08:06;;;;;;;1.08;1.00;;;26.70;50.70;;;;;;5027809;28;20072;-63
2021/07/30 03:10:34;;;;;;;1.10;1.00;;;26.70;50.70;;;;;;5027783;28;20045;-63
2021/07/30 03:13:01;;;;;;;0.88;0.88;;;26.70;50.80;;;;;;5027789;28;20103;-63
2021/07/30 03:15:28;;;;;;;0.70;0.70;;;26.70;50.80;;;;;;5028079;28;20055;-63
2021/07/30 03:17:55;;;;;;;0.93;0.88;;;26.70;50.80;;;;;;5027568;28;20158;-63
2021/07/30 03:20:22;;;;;;;1.30;1.20;;;26.70;50.80;;;;;;5027980;28;20055;-63
2021/07/30 03:22:49;;;;;;;0.90;0.90;;;26.70;50.80;;;;;;5027125;28;20057;-63
2021/07/30 03:25:16;;;;;;;0.85;0.85;;;26.70;50.80;;;;;;5026902;28;20041;-63
2021/07/30 03:27:43;;;;;;;0.90;0.90;;;26.70;51.30;;;;;;5027423;28;20075;-63
2021/07/30 03:30:11;;;;;;;1.25;1.00;;;26.70;50.70;;;;;;5028024;28;20433;-63
2021/07/30 03:32:39;;;;;;;0.80;0.80;;;26.80;50.80;;;;;;5027248;28;20527;-63
2021/07/30 03:35:07;;;;;;;1.00;1.00;;;26.80;50.80;;;;;;5027674;28;20119;-63
2021/07/30 03:37:34;;;;;;;1.85;1.10;;;26.80;50.80;;;;;;5027543;28;20096;-63
2021/07/30 03:40:01;;;;;;;0.85;0.85;;;26.80;50.80;;;;;;5027450;28;20141;-63
2021/07/30 03:42:28;;;;;;;1.00;1.00;;;26.80;50.70;;;;;;5026942;28;20077;-63
2021/07/30 03:44:56;;;;;;;1.10;1.10;;;26.80;50.70;;;;;;5027405;28;20037;-62
2021/07/30 03:47:23;;;;;;;0.93;0.93;;;26.80;50.70;;;;;;5027615;28;20132;-63
2021/07/30 03:49:50;;;;;;;1.10;1.10;;;26.80;50.70;;;;;;5027352;28;20049;-63
2021/07/30 03:52:18;;;;;;;1.05;1.05;;;26.80;50.70;;;;;;5026926;28;20043;-63
2021/07/30 03:54:45;;;;;;;1.05;0.98;;;26.80;50.60;;;;;;5027121;28;20120;-65
2021/07/30 03:57:12;;;;;;;1.00;1.00;;;26.80;50.60;;;;;;5026326;28;20144;-63
2021/07/30 03:59:40;;;;;;;0.95;0.95;;;26.80;50.60;;;;;;5027537;28;20045;-63
2021/07/30 04:02:07;;;;;;;0.95;0.95;;;26.80;50.60;;;;;;5027119;28;20136;-63
2021/07/30 04:04:34;;;;;;;0.80;0.80;;;26.80;50.60;;;;;;5027162;28;20052;-63
2021/07/30 04:07:01;;;;;;;1.00;1.00;;;26.80;50.50;;;;;;5027211;28;20145;-63
2021/07/30 04:09:28;;;;;;;1.10;1.10;;;26.80;50.50;;;;;;5027936;28;20452;-63
2021/07/30 04:11:56;;;;;;;1.02;1.02;;;26.90;50.50;;;;;;5027424;28;20056;-63
2021/07/30 04:14:23;;;;;;;0.90;0.90;;;26.90;50.50;;;;;;5026970;28;20136;-63
2021/07/30 04:16:50;;;;;;;1.35;1.25;;;26.90;50.50;;;;;;5027145;28;20049;-63
2021/07/30 04:19:17;;;;;;;0.93;0.93;;;26.90;50.40;;;;;;5026158;28;20048;-63
2021/07/30 04:21:44;;;;;;;1.65;1.55;;;26.90;50.40;;;;;;5019133;28;20073;-63
2021/07/30 04:24:12;;;;;;;1.33;1.23;;;26.90;50.40;;;;;;5008991;28;20060;-63
2021/07/30 04:26:39;;;;;;;0.90;0.90;;;27.00;50.40;;;;;;5021447;28;20527;-63
2021/07/30 04:29:07;;;;;;;1.60;1.50;;;27.00;50.40;;;;;;5007427;28;20054;-63
2021/07/30 04:31:39;;;;;;;0.90;0.90;;;27.00;50.30;;;;;;5019250;28;20077;-63
2021/07/30 04:34:09;;;;;;;1.05;1.02;;;27.00;50.30;;;;;;5026218;28;20551;-63
2021/07/30 04:36:36;;;;;;;;;;;27.00;50.30;;;;;;5028111;28;20136;-63
2021/07/30 04:39:03;;;;;;;1.02;1.02;;;27.00;50.20;;;;;;5026056;28;20007;-63
2021/07/30 04:41:30;;;;;;;1.25;1.20;;;27.00;50.50;;;;;;5027114;28;20107;-63
2021/07/30 04:43:57;;;;;;;1.13;1.13;;;27.10;50.30;;;;;;5012037;28;20089;-63
2021/07/30 04:46:26;;;;;;;1.50;1.48;;;27.10;50.20;;;;;;5006362;28;20061;-63
2021/07/30 04:48:53;;;;;;;1.38;1.27;;;27.10;50.20;;;;;;5009043;28;20415;-63
2021/07/30 04:51:20;;;;;;;1.40;1.30;;;27.10;50.10;;;;;;5014860;28;20481;-63
2021/07/30 04:53:49;;;;;;;2.47;1.20;;;27.10;50.10;;;;;;5024988;28;20041;-63
2021/07/30 04:56:20;;;;;;;1.65;1.55;;;27.20;50.40;;;;;;5017673;28;20042;-63
2021/07/30 04:58:50;;;;;;;1.33;1.23;;;27.20;50.10;;;;;;5020873;28;20501;-63
2021/07/30 05:01:17;;;;;;;1.70;1.60;;;27.20;50.10;;;;;;5028519;28;20088;-63
2021/07/30 05:03:45;;;;;;;1.30;1.20;;;27.20;50.00;;;;;;5022449;28;20100;-63
2021/07/30 05:06:14;;;;;;;2.00;1.42;;;27.20;50.00;;;;;;5027335;28;20272;-63
2021/07/30 05:08:42;;;;;;;0.82;0.82;;;27.20;50.00;;;;;;5028375;28;20076;-63
2021/07/30 05:11:11;;;;;;;1.67;1.58;;;27.20;50.10;;;;;;5028295;28;20595;-63
2021/07/30 05:13:39;;;;;;;1.65;1.55;;;27.10;50.20;;;;;;5028899;28;20042;-62
2021/07/30 05:16:08;;;;;;;1.15;1.15;;;27.10;50.40;;;;;;5027796;28;20060;-64
2021/07/30 05:18:36;;;;;;;1.55;1.45;;;26.90;50.50;;;;;;5024941;28;20422;-63
2021/07/30 05:21:05;;;;;;;1.70;1.60;;;26.80;50.80;;;;;;5021285;28;20077;-64
2021/07/30 05:23:32;;;;;;;2.28;1.77;;;26.70;51.20;;;;;;5021420;28;20128;-63
2021/07/30 05:26:00;;;;;;;1.48;1.38;;;26.50;51.60;;;;;;5010848;28;20091;-63
2021/07/30 05:28:28;;;;;;;1.77;1.67;;;26.30;52.20;;;;;;5021682;28;20081;-63
2021/07/30 05:30:57;;;;;;;1.50;1.40;;;26.00;52.70;;;;;;5018298;28;20124;-63
2021/07/30 05:33:25;;;;;;;2.20;2.00;;;25.70;53.40;;;;;;5019804;28;20453;-63
2021/07/30 05:35:53;;;;;;;3.38;2.13;;;25.50;54.10;;;;;;5022700;28;20482;-56
2021/07/30 05:38:21;;;;;;;2.25;1.70;;;25.30;54.80;;;;;;5026605;28;20494;-61
2021/07/30 05:40:49;;;;;;;2.40;2.20;;;25.10;55.50;;;;;;5019307;28;20904;-63
2021/07/30 05:43:16;;;;;;;2.65;2.45;;;24.90;56.10;;;;;;5016948;28;20084;-63
2021/07/30 05:45:43;;;;;;;2.33;2.10;;;24.70;56.60;;;;;;5020170;28;20132;-63
2021/07/30 05:48:11;;;;;;;2.63;2.30;;;24.50;57.00;;;;;;5018248;28;20198;-63
2021/07/30 05:50:38;;;;;;;2.80;2.47;;;24.40;57.30;;;;;;5014321;28;20077;-63
2021/07/30 05:53:06;;;;;;;4.60;2.47;;;24.30;57.70;;;;;;5019938;28;20075;-62
2021/07/30 05:55:33;;;;;;;3.70;2.92;;;24.30;58.00;;;;;;5021417;28;20231;-62
2021/07/30 05:58:00;;;;;;;6.97;3.15;;;24.20;58.20;;;;;;5018968;28;20041;-63
2021/07/30 06:00:27;;;;;;;4.43;2.90;;;24.10;58.40;;;;;;5026951;28;20495;-63
2021/07/30 06:02:54;;;;;;;4.80;3.47;;;24.10;58.60;;;;;;5017677;28;20136;-61
2021/07/30 06:05:22;;;;;;;5.68;3.22;;;24.10;58.80;;;;;;5010674;28;20056;-57
2021/07/30 06:07:49;;;;;;;5.25;3.65;;;24.10;58.90;;;;;;5015818;28;20095;-60
2021/07/30 06:10:16;;;;;;;5.20;3.47;;;24.10;59.00;;;;;;5022472;28;20473;-60
2021/07/30 06:12:43;;;;;;;5.85;4.20;;;24.10;59.20;;;;;;5017594;28;20566;-62
2021/07/30 06:15:11;;;;;;;5.22;3.53;;;24.10;59.40;;;;;;5017200;28;20140;-64
2021/07/30 06:17:38;;;;;;;11.18;3.45;;;24.10;59.60;;;;;;5017605;28;20056;-61
2021/07/30 06:20:08;;;;;;;6.82;4.03;;;24.00;60.40;;;;;;5015546;28;20152;-60
2021/07/30 06:22:38;;;;;;;5.95;3.72;;;24.00;60.90;;;;;;5013595;28;20973;-64
2021/07/30 06:25:06;;;;;;;6.28;3.80;;;24.00;61.10;;;;;;5015856;28;20045;-63
2021/07/30 06:27:34;;;;;;;8.70;4.15;;;24.00;61.50;;;;;;5013277;28;20061;-61
2021/07/30 06:30:07;;;;;;;5.28;3.80;;;24.00;61.60;;;;;;5013852;28;20041;-65
2021/07/30 06:32:41;;;;;;;6.45;3.80;;;24.10;61.70;;;;;;5016872;28;20081;-63
2021/07/30 06:35:09;;;;;;;5.47;3.92;;;24.10;62.10;;;;;;5016868;28;20150;-62
2021/07/30 06:37:37;;;;;;;8.02;4.35;;;24.00;61.80;;;;;;5012319;28;20503;-64
2021/07/30 06:40:05;;;;;;;6.43;3.78;;;24.10;62.00;;;;;;5007502;28;20049;-63
2021/07/30 06:42:33;;;;;;;4.88;3.00;;;24.10;62.00;;;;;;5010689;28;20076;-66
2021/07/30 06:45:03;;;;;;;6.00;3.55;;;24.10;61.90;;;;;;5006775;28;20049;-64
2021/07/30 06:47:32;;;;;;;4.47;3.28;;;24.10;61.90;;;;;;5011040;28;20056;-62
2021/07/30 06:49:59;;;;;;;11.75;4.10;;;24.10;61.70;;;;;;5012280;28;20046;-66
2021/07/30 06:52:26;;;;;;;7.30;3.50;;;24.10;61.50;;;;;;5014078;28;20077;-65
2021/07/30 06:54:54;;;;;;;11.57;3.50;;;24.10;61.30;;;;;;5010096;28;20048;-64
2021/07/30 06:57:21;;;;;;;5.05;3.53;;;24.10;61.30;;;;;;5012557;28;20149;-62
2021/07/30 06:59:49;;;;;;;5.55;3.03;;;24.10;61.20;;;;;;5015844;28;20245;-68
2021/07/30 07:02:17;;;;;;;4.35;3.13;;;24.20;61.10;;;;;;5019022;28;20042;-69
2021/07/30 07:04:44;;;;;;;3.13;2.80;;;24.10;60.80;;;;;;5016748;28;20073;-70
2021/07/30 07:07:12;;;;;;;3.22;2.75;;;24.20;60.70;;;;;;5015926;28;20060;-67
2021/07/30 07:09:39;;;;;;;5.28;2.88;;;24.20;60.40;;;;;;5014099;28;20092;-70
2021/07/30 07:12:07;;;;;;;4.95;3.05;;;24.20;60.10;;;;;;5009335;28;20757;-68
2021/07/30 07:14:35;;;;;;;3.85;2.55;;;24.20;59.90;;;;;;5014189;28;20104;-67
2021/07/30 07:17:03;;;;;;;4.47;2.58;;;24.20;59.80;;;;;;5012394;28;20045;-65
2021/07/30 07:19:30;;;;;;;4.20;2.42;;;24.20;59.80;;;;;;5015074;28;20159;-65
2021/07/30 07:21:59;;;;;;;4.13;2.97;;;24.30;59.70;;;;;;5016947;28;20123;-66
2021/07/30 07:24:27;;;;;;;4.28;2.53;;;24.30;59.70;;;;;;5018336;28;20589;-67
2021/07/30 07:26:54;;;;;;;4.68;2.50;;;24.30;59.60;;;;;;5016982;28;20741;-68
2021/07/30 07:29:21;;;;;;;2.60;2.40;;;24.30;59.50;;;;;;5015507;28;20470;-65
2021/07/30 07:31:48;;;;;;;3.13;2.50;;;24.30;59.50;;;;;;5014726;28;20060;-69
2021/07/30 07:34:15;;;;;;;4.10;2.90;;;24.40;59.60;;;;;;5016155;28;20061;-68
2021/07/30 07:36:42;;;;;;;15.55;2.40;;;24.30;59.50;;;;;;5013348;28;20144;-68
2021/07/30 07:39:10;;;;;;;2.75;2.20;;;24.40;59.20;;;;;;5018092;28;20463;-67
2021/07/30 07:41:37;;;;;;;2.70;2.50;;;24.40;59.10;;;;;;5017748;28;20195;-66
2021/07/30 07:44:04;;;;;;;2.50;2.30;;;24.40;58.90;;;;;;5017391;28;20050;-66
2021/07/30 07:46:31;;;;;;;3.42;2.10;;;24.40;58.90;;;;;;5014721;28;20045;-61
2021/07/30 07:48:59;;;;;;;2.88;2.47;;;24.40;58.90;;;;;;5018856;28;20058;-61
2021/07/30 07:51:26;;;;;;;6.10;2.63;;;24.40;59.00;;;;;;5015163;28;20081;-63
2021/07/30 07:53:53;;;;;;;4.63;3.08;;;24.40;59.10;;;;;;5038674;28;20084;-60
2021/07/30 07:56:20;;;;;;;2.13;1.92;;;24.40;59.00;;;;;;5017977;28;20065;-66
2021/07/30 07:58:47;;;;;;;3.60;2.20;;;24.40;58.80;;;;;;5016500;28;20063;-65
2021/07/30 08:01:16;;;;;;;2.88;2.45;;;24.50;58.60;;;;;;5015599;28;20083;-60
2021/07/30 08:03:44;;;;;;;4.57;2.47;;;24.40;58.40;;;;;;5017768;28;20053;-68
2021/07/30 08:06:19;;;;;;;2.20;2.00;;;24.40;58.60;;;;;;5015114;28;20142;-61
2021/07/30 08:08:47;;;;;;;2.60;2.40;;;24.50;58.70;;;;;;5016238;28;20136;-63
2021/07/30 08:11:15;;;;;;;2.28;2.08;;;24.50;58.50;;;;;;5010124;28;20536;-63
2021/07/30 08:13:42;;;;;;;2.55;2.28;;;24.50;58.40;;;;;;5014224;28;20128;-60
2021/07/30 08:16:09;;;;;;;1.95;1.85;;;24.50;58.60;;;;;;5019247;28;20052;-61
2021/07/30 08:18:36;;;;;;;3.03;2.47;;;24.50;58.80;;;;;;5016120;28;20046;-60
2021/07/30 08:21:04;;;;;;;2.33;2.08;;;24.50;59.00;;;;;;5034783;28;20389;-60
2021/07/30 08:23:31;;;;;;;2.95;2.38;;;24.50;59.00;;;;;;5011946;28;20049;-64
2021/07/30 08:25:58;;;;;;;2.10;1.90;;;24.60;59.10;;;;;;5012541;28;20045;-61
2021/07/30 08:28:26;;;;;;;1.98;1.88;;;24.60;59.10;;;;;;5013057;28;20161;-60
2021/07/30 08:30:54;;;;;;;1.85;1.75;;;24.60;58.90;;;;;;5018393;28;20572;-60
2021/07/30 08:33:21;;;;;;;1.75;1.65;;;24.70;58.80;;;;;;5013802;28;20072;-58
2021/07/30 08:35:49;;;;;;;2.80;1.80;;;24.70;58.50;;;;;;5017012;28;20041;-58
2021/07/30 08:38:16;;;;;;;2.72;1.80;;;24.80;58.30;;;;;;5013348;28;20569;-59
2021/07/30 08:40:43;;;;;;;1.80;1.70;;;24.90;58.20;;;;;;5018259;28;20049;-65
2021/07/30 08:43:15;;;;;;;2.30;2.10;;;25.00;58.10;;;;;;5017880;28;20733;-60
2021/07/30 08:45:53;;;;;;;5.30;2.15;;;25.00;57.90;;;;;;5022820;28;20132;-60
2021/07/30 08:48:20;;;;;;;1.80;1.70;;;25.10;57.60;;;;;;5020444;28;20108;-62
2021/07/30 08:50:48;;;;;;;2.28;2.05;;;25.20;57.30;;;;;;5021451;28;20060;-60
2021/07/30 08:53:22;;;;;;;3.17;2.17;;;25.30;56.90;;;;;;5026455;28;20057;-59
2021/07/30 08:55:50;;;;;;;2.13;1.83;;;25.30;56.70;;;;;;5019462;28;20041;-65
2021/07/30 08:58:17;;;;;;;4.28;2.00;;;25.30;56.70;;;;;;5017901;28;20141;-63
2021/07/30 09:00:45;;;;;;;1.52;1.42;;;25.40;56.50;;;;;;5017711;28;20096;-60
2021/07/30 09:03:12;;;;;;;2.40;1.58;;;25.40;56.40;;;;;;5016401;28;20061;-65
2021/07/30 09:05:40;;;;;;;5.00;1.75;;;25.40;56.40;;;;;;5016262;28;20129;-66
2021/07/30 09:08:08;;;;;;;1.75;1.48;;;25.40;56.50;;;;;;5020307;28;20148;-65
2021/07/30 09:10:40;;;;;;;1.80;1.70;;;25.40;56.40;;;;;;5019799;28;20076;-63
2021/07/30 09:13:27;;;;;;;1.98;1.88;;;25.40;56.20;;;;;;5018235;28;20104;-67
2021/07/30 09:16:06;;;;;;;2.58;2.08;;;25.40;56.70;;;;;;5018371;28;20069;-65
2021/07/30 09:18:39;;;;;;;3.08;1.83;;;25.40;56.50;;;;;;5015145;28;20046;-61
2021/07/30 09:21:19;;;;;;;4.95;1.98;;;25.40;55.80;;;;;;5014667;28;20499;-59
2021/07/30 09:23:49;;;;;;;1.98;1.80;;;25.40;55.70;;;;;;5019462;28;20060;-60
2021/07/30 09:26:28;;;;;;;1.70;1.60;;;25.50;55.50;;;;;;5017727;28;20498;-62
2021/07/30 09:29:01;;;;;;;4.65;1.63;;;25.50;55.40;;;;;;5019048;28;20053;-61
2021/07/30 09:31:37;;;;;;;3.60;1.83;;;25.50;55.40;;;;;;5019716;28;20124;-60
2021/07/30 09:34:32;;;;;;;2.47;1.80;;;25.50;55.30;;;;;;5018925;28;20076;-64
2021/07/30 09:37:13;;;;;;;2.92;1.90;;;25.50;55.20;;;;;;5018554;28;20042;-62
2021/07/30 09:39:46;;;;;;;2.25;1.73;;;25.50;55.00;;;;;;5020539;28;20164;-71
2021/07/30 09:42:17;;;;;;;1.98;1.77;;;25.50;55.00;;;;;;5018228;28;20210;-65
2021/07/30 09:44:55;;;;;;;2.10;1.83;;;25.40;55.20;;;;;;5017496;28;20045;-65
2021/07/30 09:47:28;;;;;;;1.80;1.70;;;25.40;55.50;;;;;;5020461;28;20056;-60
2021/07/30 09:50:00;;;;;;;2.83;1.83;;;25.40;56.00;;;;;;5024869;28;20049;-66
2021/07/30 09:52:36;;;;;;;2.15;1.90;;;25.40;56.40;;;;;;5019902;28;20132;-64
2021/07/30 09:55:07;;;;;;;2.20;2.00;;;25.40;56.40;;;;;;5015295;28;20053;-64
2021/07/30 09:57:40;;;;;;;2.80;2.13;;;25.40;56.50;;;;;;5016073;28;20054;-63
2021/07/30 10:00:14;;;;;;;2.75;2.33;;;25.40;56.60;;;;;;5017559;28;20041;-61
2021/07/30 10:02:42;;;;;;;2.28;1.85;;;25.40;56.60;;;;;;5016607;28;20159;-61
2021/07/30 10:05:14;;;;;;;2.13;1.92;;;25.40;56.70;;;;;;5013859;28;20479;-59
2021/07/30 10:07:42;;;;;;;1.73;1.63;;;25.40;56.90;;;;;;5013500;28;20054;-59
2021/07/30 10:10:20;;;;;;;2.85;2.22;;;25.40;56.90;;;;;;5015354;28;20285;-59
2021/07/30 10:12:55;;;;;;;2.10;1.95;;;25.40;56.90;;;;;;5016784;28;20137;-62
2021/07/30 10:15:23;;;;;;;1.85;1.75;;;25.40;57.00;;;;;;5015066;28;20751;-61
2021/07/30 10:17:57;;;;;;;2.15;1.80;;;25.40;56.90;;;;;;5018292;28;20049;-61
2021/07/30 10:20:27;;;;;;;2.67;2.22;;;25.40;56.90;;;;;;5016130;28;20056;-62
2021/07/30 10:23:04;;;;;;;2.17;1.98;;;25.40;56.90;;;;;;5015336;28;20056;-62
2021/07/30 10:25:50;;;;;;;2.25;2.05;;;25.40;56.80;;;;;;5018956;28;20048;-62
2021/07/30 10:28:20;;;;;;;3.97;2.25;;;25.40;56.70;;;;;;5013643;28;20137;-63
2021/07/30 10:30:59;;;;;;;2.50;2.30;;;25.40;56.60;;;;;;5018122;28;20107;-63
2021/07/30 10:33:48;;;;;;;2.70;2.10;;;25.40;56.50;;;;;;5018475;28;20049;-63
2021/07/30 10:36:37;;;;;;;2.00;1.80;;;25.30;56.30;;;;;;5014146;28;20144;-61
2021/07/30 10:39:11;;;;;;;2.50;1.90;;;25.30;56.20;;;;;;5015831;28;20146;-62
2021/07/30 10:41:40;;;;;;;2.22;2.03;;;25.30;56.10;;;;;;5007278;28;20509;-64
2021/07/30 10:44:08;;;;;;;2.08;1.60;;;25.20;56.00;;;;;;5018398;28;20042;-64
2021/07/30 10:46:36;;;;;;;2.40;2.15;;;25.20;56.10;;;;;;5015744;28;20096;-63
2021/07/30 10:49:37;;;;;;;5.22;2.20;;;25.20;56.30;;;;;;5019553;28;20077;-59
2021/07/30 10:52:28;;;;;;;2.13;1.95;;;25.10;56.80;;;;;;5018699;28;20048;-64
2021/07/30 10:54:57;;;;;;;3.42;2.33;;;25.10;57.40;;;;;;5017044;28;20061;-62
2021/07/30 10:57:48;;;;;;;7.00;2.45;;;25.10;57.70;;;;;;5016504;28;20128;-61
2021/07/30 11:00:16;;;;;;;3.92;2.03;;;25.10;58.00;;;;;;5018019;28;20054;-60
2021/07/30 11:03:02;;;;;;;2.38;2.13;;;25.10;58.30;;;;;;5015965;28;20045;-64
2021/07/30 11:05:29;;;;;;;2.30;2.05;;;25.00;58.20;;;;;;5016341;28;20068;-66
2021/07/30 11:08:01;;;;;;;2.95;2.20;;;25.00;58.00;;;;;;5010917;28;20108;-65
2021/07/30 11:10:28;;;;;;;2.83;2.58;;;25.00;58.10;;;;;;5016441;28;20049;-67
2021/07/30 11:12:56;;;;;;;2.60;2.40;;;25.00;58.20;;;;;;5022177;28;20052;-65
2021/07/30 11:15:31;;;;;;;2.67;2.22;;;25.00;58.10;;;;;;5013333;28;20079;-64
2021/07/30 11:18:00;;;;;;;2.58;2.38;;;25.00;58.10;;;;;;5014516;28;20387;-67
2021/07/30 11:20:34;;;;;;;2.78;2.55;;;25.00;58.30;;;;;;5017493;28;21205;-63
2021/07/30 11:23:04;;;;;;;3.40;2.67;;;25.00;58.60;;;;;;5016605;28;20100;-65
2021/07/30 11:25:31;;;;;;;3.05;2.70;;;25.00;58.80;;;;;;5014693;28;20147;-66
2021/07/30 11:27:59;;;;;;;3.03;2.47;;;25.00;58.50;;;;;;5020213;28;20053;-67
2021/07/30 11:30:30;;;;;;;3.53;3.22;;;24.90;58.10;;;;;;5017946;28;20128;-66
2021/07/30 11:32:58;;;;;;;3.45;2.83;;;24.90;58.00;;;;;;5018512;28;20493;-65
2021/07/30 11:35:28;;;;;;;6.43;3.58;;;24.90;58.10;;;;;;5017991;28;20104;-63
2021/07/30 11:38:00;;;;;;;3.80;3.42;;;24.90;58.50;;;;;;5012345;28;20521;-64
2021/07/30 11:40:27;;;;;;;3.45;3.15;;;25.00;59.10;;;;;;5019183;28;20533;-63
2021/07/30 11:43:05;;;;;;;7.30;3.30;;;25.00;59.50;;;;;;5025088;28;20129;-64
2021/07/30 11:45:33;;;;;;;4.30;3.28;;;25.00;59.50;;;;;;5019523;28;20176;-60
2021/07/30 11:48:10;;;;;;;8.38;3.83;;;25.00;59.60;;;;;;5020951;28;20372;-66
2021/07/30 11:50:38;;;;;;;7.95;3.78;;;25.00;59.80;;;;;;5015805;28;20524;-62
2021/07/30 11:53:08;;;;;;;4.70;3.20;;;25.00;60.00;;;;;;5014200;28;20137;-64
2021/07/30 11:55:35;;;;;;;4.07;3.35;;;25.00;60.50;;;;;;5017411;28;20115;-62
2021/07/30 11:58:11;;;;;;;3.63;3.33;;;24.90;60.90;;;;;;5016450;28;20103;-64
2021/07/30 12:00:38;;;;;;;5.63;3.83;;;25.00;61.20;;;;;;5008518;28;20064;-60
2021/07/30 12:03:18;;;;;;;6.70;3.42;;;24.90;61.70;;;;;;5019536;28;20431;-67
2021/07/30 12:05:49;;;;;;;3.85;3.50;;;24.90;61.60;;;;;;5022388;28;20049;-67
2021/07/30 12:08:18;;;;;;;8.18;4.30;;;24.90;61.00;;;;;;5021274;28;20081;-68
2021/07/30 12:10:47;;;;;;;3.60;2.78;;;24.90;60.40;;;;;;5022958;28;21461;-66
2021/07/30 12:13:18;;;;;;;3.45;3.15;;;24.80;59.90;;;;;;5018594;28;20136;-65
2021/07/30 12:15:45;;;;;;;3.25;2.90;;;24.80;59.60;;;;;;5022526;28;20146;-65
2021/07/30 12:18:13;;;;;;;3.97;3.30;;;24.80;59.30;;;;;;5020456;28;20077;-59
2021/07/30 12:20:40;;;;;;;3.28;2.95;;;24.80;59.20;;;;;;5020239;28;20490;-61
2021/07/30 12:23:11;;;;;;;5.18;4.05;;;24.80;59.40;;;;;;5025242;28;20169;-60
2021/07/30 12:25:46;;;;;;;3.70;3.30;;;24.70;59.40;;;;;;5024590;28;20083;-60
2021/07/30 12:28:16;;;;;;;5.63;3.20;;;24.70;59.40;;;;;;5020353;28;20084;-60
2021/07/30 12:30:49;;;;;;;3.50;3.20;;;24.70;59.50;;;;;;5021370;28;20055;-65
2021/07/30 12:33:23;;;;;;;3.33;3.00;;;24.70;59.50;;;;;;5021087;28;20100;-63
2021/07/30 12:36:05;;;;;;;3.70;3.20;;;24.70;59.40;;;;;;5021577;28;20041;-67
2021/07/30 12:38:33;;;;;;;3.22;2.90;;;24.70;59.30;;;;;;5023406;28;20957;-67
2021/07/30 12:41:16;;;;;;;3.22;2.92;;;24.70;59.00;;;;;;5020078;28;20045;-67
2021/07/30 12:43:46;;;;;;;3.55;3.10;;;24.70;58.70;;;;;;5016790;28;20047;-67
2021/07/30 12:46:35;;;;;;;3.42;3.13;;;24.70;58.50;;;;;;5020962;28;20498;-67
2021/07/30 12:49:05;;;;;;;3.78;3.42;;;24.70;58.40;;;;;;5024860;28;20569;-67
2021/07/30 12:51:33;;;;;;;2.80;2.60;;;24.70;58.40;;;;;;5023710;28;20084;-67
2021/07/30 12:54:08;;;;;;;3.50;3.00;;;24.70;58.30;;;;;;5027931;28;20046;-67
2021/07/30 12:57:03;;;;;;;3.40;3.15;;;24.70;58.20;;;;;;5027911;28;20057;-67
2021/07/30 12:59:55;;;;;;;5.72;3.60;;;24.70;58.20;;;;;;5029139;28;20232;-67
2021/07/30 13:02:24;;;;;;;3.90;3.13;;;24.70;58.20;;;;;;5027895;28;20080;-67